Time;durP1;ratioP1;P1;durP2;ratioP2;P2;SDS_P1;SDS_P2;PMS_P1;PMS_P2;Temp;Humidity;BMP_temperature;BMP_pressure;BME280_temperature;BME280_humidity;BME280_pressure;Samples;Min_cycle;Max_cycle;Signal;HPM_P1;HPM_P2
2022/07/28 00:00:40;;;;;;;2.73;1.10;;;13.60;99.90;;;;;;5011157;28;20925;-69
2022/07/28 00:03:06;;;;;;;2.45;1.35;;;13.60;99.90;;;;;;5019710;28;20032;-69
2022/07/28 00:05:32;;;;;;;2.47;0.83;;;13.60;99.90;;;;;;5024936;28;20625;-69
2022/07/28 00:07:57;;;;;;;3.87;1.00;;;13.50;99.90;;;;;;5005688;28;20310;-69
2022/07/28 00:10:23;;;;;;;5.40;0.90;;;13.50;99.90;;;;;;5015792;28;20046;-70
2022/07/28 00:12:49;;;;;;;2.33;0.98;;;13.40;99.90;;;;;;5024853;28;20227;-69
2022/07/28 00:15:14;;;;;;;2.90;1.10;;;13.40;99.90;;;;;;5009842;28;20532;-70
2022/07/28 00:17:40;;;;;;;1.83;0.90;;;13.40;99.90;;;;;;5022088;28;20094;-69
2022/07/28 00:20:06;;;;;;;2.60;1.27;;;13.50;99.90;;;;;;5015132;28;20514;-70
2022/07/28 00:22:39;;;;;;;;;;;13.50;99.90;;;;;;5013666;28;20053;-69
2022/07/28 00:25:05;;;;;;;3.97;1.10;;;13.50;99.90;;;;;;5018863;28;19917;-69
2022/07/28 00:27:31;;;;;;;3.28;1.13;;;13.40;99.90;;;;;;5017376;28;20037;-69
2022/07/28 00:29:56;;;;;;;3.38;1.13;;;13.40;99.90;;;;;;5013498;28;20595;-70
2022/07/28 00:32:22;;;;;;;4.10;1.50;;;13.40;99.90;;;;;;4996734;28;20049;-69
2022/07/28 00:34:49;;;;;;;3.05;1.17;;;13.40;99.90;;;;;;5014915;28;21870;-69
2022/07/28 00:37:15;;;;;;;2.10;1.05;;;13.40;99.90;;;;;;5022375;28;20068;-69
2022/07/28 00:39:42;;;;;;;2.10;1.00;;;13.40;99.90;;;;;;5015284;28;20199;-70
2022/07/28 00:42:07;;;;;;;2.13;1.10;;;13.30;99.90;;;;;;5008371;28;20073;-69
2022/07/28 00:44:33;;;;;;;2.22;1.27;;;13.30;99.90;;;;;;5011794;28;20128;-70
2022/07/28 00:46:59;;;;;;;4.13;1.60;;;13.30;99.90;;;;;;5011041;28;20132;-70
2022/07/28 00:49:24;;;;;;;3.03;1.00;;;13.30;99.90;;;;;;5017180;28;20300;-70
2022/07/28 00:51:50;;;;;;;2.70;1.30;;;13.30;99.90;;;;;;5010893;28;20304;-70
2022/07/28 00:54:16;;;;;;;2.95;1.15;;;13.30;99.90;;;;;;5011394;28;20383;-70
2022/07/28 00:56:41;;;;;;;3.33;1.38;;;13.30;99.90;;;;;;5013098;28;20077;-70
2022/07/28 00:59:07;;;;;;;2.30;1.50;;;13.20;99.90;;;;;;5013679;28;20034;-70
2022/07/28 01:01:32;;;;;;;2.60;1.30;;;13.30;99.90;;;;;;5012080;28;20091;-70
2022/07/28 01:04:00;;;;;;;3.97;1.20;;;13.30;99.90;;;;;;5012886;28;20078;-70
2022/07/28 01:06:59;;;;;;;4.35;1.38;;;13.20;99.90;;;;;;5011636;28;20909;-70
2022/07/28 01:09:49;;;;;;;3.20;1.40;;;13.30;99.90;;;;;;5013947;28;20401;-70
2022/07/28 01:12:21;;;;;;;3.20;1.50;;;13.20;99.90;;;;;;4990382;28;20762;-70
2022/07/28 01:15:10;;;;;;;3.38;1.63;;;13.20;99.90;;;;;;5016381;28;20064;-70
2022/07/28 01:17:46;;;;;;;3.90;1.73;;;13.20;99.90;;;;;;5012103;28;20037;-70
2022/07/28 01:20:15;;;;;;;;;;;13.20;99.90;;;;;;5009099;28;20505;-69
2022/07/28 01:23:03;;;;;;;4.43;1.77;;;13.20;99.90;;;;;;5023579;28;19943;-74
2022/07/28 01:26:07;;;;;;;4.28;1.45;;;13.20;99.90;;;;;;5012170;28;20497;-70
2022/07/28 01:28:50;;;;;;;2.83;1.60;;;13.20;99.90;;;;;;4992983;28;20068;-70
2022/07/28 01:31:23;;;;;;;2.80;1.23;;;13.20;99.90;;;;;;5015664;28;20091;-70
2022/07/28 01:33:55;;;;;;;3.53;1.20;;;13.20;99.90;;;;;;5023018;28;20413;-70
2022/07/28 01:36:26;;;;;;;3.60;1.65;;;13.20;99.90;;;;;;5019805;28;20073;-70
2022/07/28 01:38:52;;;;;;;6.93;1.90;;;13.20;99.90;;;;;;5012025;28;20244;-70
2022/07/28 01:41:21;;;;;;;5.53;1.90;;;13.20;99.90;;;;;;5017115;28;20029;-70
2022/07/28 01:43:56;;;;;;;3.58;1.50;;;13.20;99.90;;;;;;5015000;28;20037;-70
2022/07/28 01:46:23;;;;;;;3.60;1.55;;;13.30;99.90;;;;;;5008256;28;20476;-70
2022/07/28 01:48:50;;;;;;;5.57;1.08;;;13.20;99.90;;;;;;5014864;28;20640;-70
2022/07/28 01:51:17;;;;;;;4.38;1.48;;;13.20;99.90;;;;;;5014124;28;20078;-70
2022/07/28 01:53:44;;;;;;;4.28;1.35;;;13.20;99.90;;;;;;5014974;28;20280;-70
2022/07/28 01:56:14;;;;;;;4.63;1.33;;;13.20;99.90;;;;;;5023428;28;20076;-70
2022/07/28 01:58:42;;;;;;;2.88;1.30;;;13.10;99.90;;;;;;5020488;28;20044;-70
2022/07/28 02:01:10;;;;;;;4.63;1.65;;;13.10;99.90;;;;;;5021768;28;20057;-69
2022/07/28 02:03:38;;;;;;;3.53;1.45;;;13.10;99.90;;;;;;5021754;28;20037;-70
2022/07/28 02:06:05;;;;;;;2.92;1.35;;;13.10;99.90;;;;;;5013364;28;20037;-70
2022/07/28 02:08:32;;;;;;;4.32;1.30;;;13.10;99.90;;;;;;5019683;28;20407;-70
2022/07/28 02:13:31;;;;;;;7.88;1.63;;;13.00;99.90;;;;;;5056059;28;20041;-71
2022/07/28 02:15:58;;;;;;;3.05;1.30;;;13.00;99.90;;;;;;5058854;28;20180;-71
2022/07/28 02:18:25;;;;;;;3.10;1.17;;;13.00;99.90;;;;;;5059202;28;20123;-71
2022/07/28 02:20:52;;;;;;;4.10;1.05;;;13.00;99.90;;;;;;5055297;28;20040;-71
2022/07/28 02:23:20;;;;;;;3.67;1.27;;;13.00;99.90;;;;;;5056227;28;20040;-71
2022/07/28 02:25:48;;;;;;;2.58;1.20;;;13.00;99.90;;;;;;5060337;28;20036;-72
2022/07/28 02:28:15;;;;;;;3.78;1.50;;;13.00;99.90;;;;;;5063953;28;20511;-71
2022/07/28 02:30:47;;;;;;;3.53;1.38;;;13.00;99.90;;;;;;5052406;28;20049;-71
2022/07/28 02:33:22;;;;;;;2.45;1.30;;;12.90;99.90;;;;;;5047488;28;20059;-72
2022/07/28 02:36:08;;;;;;;2.92;1.50;;;12.90;99.90;;;;;;5057756;28;20162;-72
2022/07/28 02:38:42;;;;;;;3.53;1.50;;;12.90;99.90;;;;;;5049253;28;20048;-72
2022/07/28 02:41:23;;;;;;;2.58;1.33;;;12.80;99.90;;;;;;5048314;28;20051;-72
2022/07/28 02:43:51;;;;;;;4.78;1.20;;;12.80;99.90;;;;;;5045321;28;20137;-72
2022/07/28 02:46:26;;;;;;;3.13;1.45;;;12.80;99.90;;;;;;5045715;28;20071;-71
2022/07/28 02:48:56;;;;;;;3.80;2.05;;;12.80;99.90;;;;;;5054640;28;20444;-72
2022/07/28 02:51:27;;;;;;;4.57;1.95;;;12.80;99.90;;;;;;5054617;28;20032;-72
2022/07/28 02:53:53;;;;;;;3.20;1.90;;;12.70;99.90;;;;;;5045055;28;20111;-72
2022/07/28 02:56:20;;;;;;;;;;;12.70;99.90;;;;;;5047145;28;20263;-71
2022/07/28 02:58:46;;;;;;;4.63;2.00;;;12.80;99.90;;;;;;5041693;28;19936;-72
2022/07/28 03:01:15;;;;;;;3.97;1.40;;;12.70;99.90;;;;;;5051615;28;20511;-71
2022/07/28 03:03:41;;;;;;;3.05;1.60;;;12.70;99.90;;;;;;5045517;28;20377;-71
2022/07/28 03:06:06;;;;;;;5.25;1.45;;;12.70;99.90;;;;;;5048788;28;20113;-71
2022/07/28 03:08:32;;;;;;;3.60;1.42;;;12.70;99.90;;;;;;5045906;28;20072;-71
2022/07/28 03:11:08;;;;;;;4.25;1.98;;;12.70;99.90;;;;;;5052449;28;20102;-71
2022/07/28 03:13:34;;;;;;;3.95;1.65;;;12.70;99.90;;;;;;5043584;28;20040;-72
2022/07/28 03:16:03;;;;;;;2.85;1.30;;;12.60;99.90;;;;;;5051203;28;20123;-71
2022/07/28 03:18:29;;;;;;;7.35;1.65;;;12.60;99.90;;;;;;5053618;28;20036;-70
2022/07/28 03:20:55;;;;;;;3.22;1.52;;;12.60;99.90;;;;;;5049094;28;20516;-70
2022/07/28 03:23:27;;;;;;;2.83;1.38;;;12.60;99.90;;;;;;5054975;28;20042;-69
2022/07/28 03:25:56;;;;;;;2.17;1.38;;;12.60;99.90;;;;;;5053973;28;20314;-69
2022/07/28 03:28:23;;;;;;;3.60;1.30;;;12.60;99.90;;;;;;5050259;28;20332;-70
2022/07/28 03:31:10;;;;;;;1.92;1.10;;;12.50;99.90;;;;;;5043409;28;20072;-70
2022/07/28 03:33:37;;;;;;;3.20;1.40;;;12.50;99.90;;;;;;5047852;28;20036;-69
2022/07/28 03:36:05;;;;;;;;;;;12.40;99.90;;;;;;5048489;28;20032;-71
2022/07/28 03:38:37;;;;;;;3.53;1.42;;;12.40;99.90;;;;;;5050559;28;20050;-71
2022/07/28 03:41:06;;;;;;;3.83;1.50;;;12.40;99.90;;;;;;5055288;28;20582;-71
2022/07/28 03:43:33;;;;;;;3.20;1.60;;;12.40;99.90;;;;;;5045835;28;20612;-71
2022/07/28 03:45:59;;;;;;;3.13;1.42;;;12.40;99.90;;;;;;5045150;28;20349;-71
2022/07/28 03:48:29;;;;;;;2.90;1.48;;;12.40;99.90;;;;;;5050672;28;20060;-71
2022/07/28 03:50:55;;;;;;;2.67;1.40;;;12.40;99.90;;;;;;5043791;28;20398;-71
2022/07/28 03:53:24;;;;;;;4.10;1.10;;;12.40;99.90;;;;;;5044745;28;20040;-72
2022/07/28 03:55:50;;;;;;;3.78;1.50;;;12.40;99.90;;;;;;5038886;28;20493;-72
2022/07/28 03:58:17;;;;;;;2.08;1.20;;;12.40;99.90;;;;;;5044697;28;20037;-71
2022/07/28 04:00:43;;;;;;;2.60;1.40;;;12.40;99.90;;;;;;5037265;28;20753;-71
2022/07/28 04:03:08;;;;;;;2.53;1.60;;;12.40;99.90;;;;;;5055770;28;20199;-71
2022/07/28 04:05:34;;;;;;;3.53;1.67;;;12.50;99.90;;;;;;5048972;28;20134;-71
2022/07/28 04:08:00;;;;;;;4.93;1.87;;;12.50;99.90;;;;;;5038397;28;20091;-71
2022/07/28 04:10:25;;;;;;;3.13;1.40;;;12.50;99.90;;;;;;5048830;28;20493;-71
2022/07/28 04:12:55;;;;;;;2.47;1.30;;;12.50;99.90;;;;;;5047331;28;20051;-71
2022/07/28 04:15:22;;;;;;;3.90;1.48;;;12.60;99.90;;;;;;5051169;28;20051;-71
2022/07/28 04:17:49;;;;;;;3.20;1.23;;;12.60;99.90;;;;;;5050488;28;20438;-71
2022/07/28 04:20:16;;;;;;;4.03;1.45;;;12.70;99.90;;;;;;5049586;28;20052;-71
2022/07/28 04:22:43;;;;;;;4.95;1.60;;;12.70;99.90;;;;;;5052850;28;20110;-71
2022/07/28 04:25:11;;;;;;;5.25;1.40;;;12.70;99.90;;;;;;5060089;28;20041;-71
2022/07/28 04:27:37;;;;;;;2.75;1.35;;;12.80;99.90;;;;;;5062040;28;20047;-72
2022/07/28 04:30:05;;;;;;;2.08;1.30;;;12.70;99.90;;;;;;5064509;28;20258;-71
2022/07/28 04:32:31;;;;;;;2.25;1.33;;;12.70;99.90;;;;;;5058809;28;20510;-71
2022/07/28 04:34:56;;;;;;;3.27;1.27;;;12.70;99.90;;;;;;5062527;28;20036;-71
2022/07/28 04:37:22;;;;;;;3.67;1.77;;;12.70;99.90;;;;;;5061811;28;20364;-71
2022/07/28 04:39:49;;;;;;;3.70;1.58;;;12.70;99.90;;;;;;5063198;28;20066;-71
2022/07/28 04:42:18;;;;;;;3.88;1.60;;;12.70;99.90;;;;;;5051772;28;20028;-71
2022/07/28 04:44:44;;;;;;;5.63;1.80;;;12.70;99.90;;;;;;5056646;28;20088;-71
2022/07/28 04:47:12;;;;;;;2.92;1.90;;;12.70;99.90;;;;;;5058176;28;20047;-71
2022/07/28 04:49:38;;;;;;;4.15;1.65;;;12.70;99.90;;;;;;5042415;28;20037;-71
2022/07/28 04:52:04;;;;;;;;;;;12.70;99.90;;;;;;5063518;28;20367;-70
2022/07/28 04:54:30;;;;;;;3.30;1.73;;;12.70;99.90;;;;;;5064617;28;20081;-71
2022/07/28 04:56:56;;;;;;;3.78;1.80;;;12.70;99.90;;;;;;5059607;28;20036;-71
2022/07/28 04:59:21;;;;;;;2.93;1.57;;;12.70;99.90;;;;;;5059261;28;20101;-71
2022/07/28 05:01:47;;;;;;;3.87;1.67;;;12.70;99.90;;;;;;5062131;28;20048;-70
2022/07/28 05:04:12;;;;;;;3.67;1.83;;;12.70;99.90;;;;;;5066753;28;20106;-71
2022/07/28 05:06:38;;;;;;;2.63;1.37;;;12.70;99.90;;;;;;5056662;28;20044;-71
2022/07/28 05:09:04;;;;;;;5.37;2.00;;;12.70;99.90;;;;;;5060286;28;20048;-71
2022/07/28 05:11:29;;;;;;;2.30;1.70;;;12.80;99.90;;;;;;5061399;28;20684;-71
2022/07/28 05:13:55;;;;;;;5.13;1.67;;;12.80;99.90;;;;;;5064735;28;20029;-71
2022/07/28 05:16:23;;;;;;;3.03;1.67;;;12.90;99.90;;;;;;5063112;28;20171;-71
2022/07/28 05:18:49;;;;;;;3.15;1.70;;;12.80;99.90;;;;;;5062163;28;20040;-71
2022/07/28 05:21:14;;;;;;;3.73;1.60;;;12.90;99.90;;;;;;5063650;28;20408;-71
2022/07/28 05:23:43;;;;;;;2.80;1.60;;;13.00;99.90;;;;;;5057686;28;20044;-71
2022/07/28 05:26:09;;;;;;;3.53;1.90;;;13.00;99.90;;;;;;5059917;28;20071;-71
2022/07/28 05:28:34;;;;;;;3.80;1.67;;;13.10;99.90;;;;;;5061712;28;20446;-71
2022/07/28 05:31:00;;;;;;;2.63;1.20;;;13.10;99.90;;;;;;5065364;28;20314;-71
2022/07/28 05:33:26;;;;;;;5.10;1.57;;;13.10;99.90;;;;;;5065894;28;20032;-71
2022/07/28 05:35:58;;;;;;;3.60;1.50;;;13.20;99.90;;;;;;5065617;28;20310;-71
2022/07/28 05:38:25;;;;;;;2.83;1.58;;;13.20;99.90;;;;;;5055492;28;20379;-71
2022/07/28 05:40:51;;;;;;;2.80;1.38;;;13.30;99.90;;;;;;5066172;28;20342;-71
2022/07/28 05:43:17;;;;;;;3.22;1.58;;;13.30;99.90;;;;;;5067142;28;20314;-71
2022/07/28 05:45:43;;;;;;;;;;;13.40;99.90;;;;;;5062701;28;20036;-71
2022/07/28 05:48:09;;;;;;;3.90;1.33;;;13.40;99.90;;;;;;5060876;28;20420;-71
2022/07/28 05:50:35;;;;;;;3.80;1.30;;;13.50;99.90;;;;;;5062354;28;20024;-72
2022/07/28 05:53:00;;;;;;;2.25;1.20;;;13.60;99.90;;;;;;5053888;28;20032;-77
2022/07/28 05:55:26;;;;;;;2.60;1.27;;;13.70;99.90;;;;;;5058144;28;20098;-71
2022/07/28 05:57:53;;;;;;;3.50;1.15;;;13.80;99.90;;;;;;5061593;28;20028;-71
2022/07/28 06:00:19;;;;;;;;;;;13.90;99.90;;;;;;5054960;28;20044;-71
2022/07/28 06:02:47;;;;;;;4.88;2.30;;;14.00;99.90;;;;;;5057291;28;19943;-71
2022/07/28 06:05:15;;;;;;;6.53;1.75;;;14.10;99.90;;;;;;5041357;28;20054;-70
2022/07/28 06:07:44;;;;;;;11.93;4.18;;;14.20;99.90;;;;;;5057513;28;20060;-70
2022/07/28 06:10:12;;;;;;;9.50;3.88;;;14.20;99.90;;;;;;5059529;28;20132;-70
2022/07/28 06:12:54;;;;;;;8.45;2.15;;;14.30;99.90;;;;;;5055872;28;20053;-70
2022/07/28 06:15:26;;;;;;;6.13;1.33;;;14.40;99.90;;;;;;5056389;28;20060;-69
2022/07/28 06:17:54;;;;;;;2.03;0.85;;;14.50;99.90;;;;;;5061835;28;20041;-70
2022/07/28 06:20:21;;;;;;;7.07;1.10;;;14.60;99.90;;;;;;5062118;28;20064;-70
2022/07/28 06:22:52;;;;;;;1.92;1.05;;;14.70;99.90;;;;;;5055528;28;20044;-70
2022/07/28 06:25:30;;;;;;;2.00;0.75;;;14.80;99.90;;;;;;5052374;28;20066;-70
2022/07/28 06:27:58;;;;;;;4.03;1.10;;;14.90;99.90;;;;;;5043675;28;20102;-70
2022/07/28 06:30:24;;;;;;;5.57;0.75;;;15.00;99.90;;;;;;5034748;28;20444;-71
2022/07/28 06:32:50;;;;;;;3.15;0.73;;;15.00;99.90;;;;;;5052424;28;20064;-70
2022/07/28 06:35:16;;;;;;;2.30;1.08;;;15.10;99.90;;;;;;5053171;28;20056;-70
2022/07/28 06:37:46;;;;;;;1.42;0.60;;;15.10;99.90;;;;;;5050024;28;20097;-71
2022/07/28 06:40:13;;;;;;;4.18;0.80;;;15.30;99.90;;;;;;5053509;28;20040;-70
2022/07/28 06:42:40;;;;;;;2.20;0.57;;;15.30;99.90;;;;;;5052421;28;20045;-70
2022/07/28 06:45:08;;;;;;;3.00;0.80;;;15.30;99.90;;;;;;5055484;28;20052;-70
2022/07/28 06:47:37;;;;;;;2.72;0.55;;;15.40;99.90;;;;;;5053708;28;20119;-70
2022/07/28 06:50:04;;;;;;;0.88;0.35;;;15.50;99.90;;;;;;5056723;28;20037;-70
2022/07/28 06:52:30;;;;;;;1.30;0.65;;;15.50;99.90;;;;;;5058916;28;20052;-70
2022/07/28 06:54:56;;;;;;;;;;;15.60;99.90;;;;;;5055841;28;20448;-70
2022/07/28 06:57:22;;;;;;;2.13;0.57;;;15.70;99.90;;;;;;5057649;28;19993;-70
2022/07/28 06:59:48;;;;;;;1.35;0.68;;;15.80;99.90;;;;;;5056405;28;20570;-70
2022/07/28 07:02:14;;;;;;;1.60;0.55;;;15.90;99.90;;;;;;5055951;28;20382;-70
2022/07/28 07:04:39;;;;;;;1.45;0.50;;;15.90;99.90;;;;;;5058543;28;20098;-70
2022/07/28 07:07:06;;;;;;;1.20;0.50;;;16.10;99.90;;;;;;5060440;28;20517;-70
2022/07/28 07:09:32;;;;;;;1.15;0.40;;;16.10;99.90;;;;;;5060887;28;21024;-70
2022/07/28 07:11:57;;;;;;;1.92;0.32;;;16.20;99.90;;;;;;5059858;28;20123;-70
2022/07/28 07:14:23;;;;;;;3.83;0.50;;;16.30;99.90;;;;;;5060409;28;20455;-70
2022/07/28 07:16:49;;;;;;;2.50;0.45;;;16.30;99.90;;;;;;5056690;28;20044;-70
2022/07/28 07:19:16;;;;;;;1.52;0.63;;;16.40;99.90;;;;;;5056383;28;20097;-70
2022/07/28 07:21:41;;;;;;;0.70;0.35;;;16.50;99.90;;;;;;5056099;28;20045;-70
2022/07/28 07:24:10;;;;;;;0.68;0.35;;;16.50;99.90;;;;;;5059726;28;20048;-70
2022/07/28 07:26:36;;;;;;;1.42;0.35;;;16.60;99.90;;;;;;5060134;28;20045;-70
2022/07/28 07:29:02;;;;;;;1.08;0.40;;;16.60;99.90;;;;;;5062939;28;20113;-70
2022/07/28 07:31:27;;;;;;;1.52;0.73;;;16.70;99.90;;;;;;5054447;28;20124;-70
2022/07/28 07:33:53;;;;;;;3.03;0.70;;;16.80;99.90;;;;;;5056118;28;20055;-70
2022/07/28 07:36:18;;;;;;;1.38;0.40;;;16.80;99.90;;;;;;5058810;28;20036;-70
2022/07/28 07:38:44;;;;;;;2.88;0.75;;;16.80;99.90;;;;;;5057779;28;20402;-75
2022/07/28 07:41:11;;;;;;;0.85;0.38;;;16.80;99.90;;;;;;5057342;28;20128;-70
2022/07/28 07:43:37;;;;;;;1.00;0.45;;;16.90;99.90;;;;;;5059786;28;20047;-70
2022/07/28 07:46:02;;;;;;;1.90;0.63;;;16.90;99.90;;;;;;5054110;28;20029;-70
2022/07/28 07:48:28;;;;;;;0.35;0.20;;;17.00;99.90;;;;;;5056526;28;20041;-76
2022/07/28 07:50:56;;;;;;;0.85;0.25;;;16.80;99.90;;;;;;5049803;28;20489;-77
2022/07/28 07:53:23;;;;;;;0.98;0.43;;;16.90;99.90;;;;;;5052825;28;20041;-79
2022/07/28 07:55:49;;;;;;;;;;;16.90;99.90;;;;;;5059743;28;20033;-70
2022/07/28 07:58:15;;;;;;;1.48;0.40;;;17.00;99.90;;;;;;5057765;28;20035;-70
2022/07/28 08:00:40;;;;;;;2.15;0.75;;;17.00;99.90;;;;;;5057889;28;20111;-70
2022/07/28 08:03:06;;;;;;;1.15;0.65;;;16.90;99.90;;;;;;5058997;28;20032;-70
2022/07/28 08:05:32;;;;;;;4.88;0.70;;;17.00;99.90;;;;;;5058069;28;20049;-69
2022/07/28 08:07:57;;;;;;;2.00;0.50;;;17.00;99.90;;;;;;5056035;28;20128;-70
2022/07/28 08:10:23;;;;;;;1.58;0.80;;;17.00;99.90;;;;;;5055251;28;20044;-71
2022/07/28 08:12:48;;;;;;;1.73;0.40;;;17.00;99.90;;;;;;5061230;22;20751;-71
2022/07/28 08:15:14;;;;;;;3.23;0.67;;;17.00;99.90;;;;;;5033550;28;20128;-71
2022/07/28 08:17:40;;;;;;;1.05;0.45;;;17.00;99.90;;;;;;5034016;28;22851;-71
2022/07/28 08:20:06;;;;;;;1.33;0.57;;;17.00;99.90;;;;;;5034853;28;22807;-73
2022/07/28 08:22:31;;;;;;;2.05;0.70;;;16.90;99.90;;;;;;5034260;28;20507;-70
2022/07/28 08:24:59;;;;;;;1.17;0.63;;;16.90;99.90;;;;;;5033176;28;20076;-70
2022/07/28 08:27:26;;;;;;;3.05;0.70;;;16.90;99.90;;;;;;5030420;28;20117;-70
2022/07/28 08:29:52;;;;;;;1.83;0.88;;;16.90;99.90;;;;;;5044137;28;20068;-71
2022/07/28 08:32:17;;;;;;;1.13;0.45;;;16.90;99.90;;;;;;5046450;28;20351;-71
2022/07/28 08:34:43;;;;;;;1.63;0.30;;;16.90;99.90;;;;;;5034477;28;20044;-71
2022/07/28 08:37:09;;;;;;;1.65;0.40;;;17.00;99.90;;;;;;5043127;28;20099;-71
2022/07/28 08:39:35;;;;;;;1.38;0.20;;;17.00;99.90;;;;;;5026093;28;20037;-71
2022/07/28 08:42:04;;;;;;;;;;;17.00;99.90;;;;;;5047999;28;20558;-71
2022/07/28 08:44:45;;;;;;;2.10;0.40;;;17.10;99.90;;;;;;5029037;28;19916;-71
2022/07/28 08:47:12;;;;;;;1.48;0.55;;;17.10;99.90;;;;;;5042784;28;20056;-71
2022/07/28 08:49:41;;;;;;;1.60;0.60;;;17.20;99.90;;;;;;5045622;28;20041;-71
2022/07/28 08:52:10;;;;;;;1.10;0.32;;;17.20;99.90;;;;;;5044850;28;20070;-71
2022/07/28 08:54:39;;;;;;;1.77;0.73;;;17.30;99.90;;;;;;5041074;28;20406;-71
2022/07/28 08:57:05;;;;;;;2.00;0.85;;;17.40;99.90;;;;;;5047305;28;20369;-71
2022/07/28 08:59:31;;;;;;;2.22;0.52;;;17.50;99.90;;;;;;5046869;28;20094;-72
2022/07/28 09:01:57;;;;;;;1.20;0.50;;;17.60;99.90;;;;;;5043323;28;20044;-71
2022/07/28 09:04:24;;;;;;;1.98;0.60;;;17.70;99.90;;;;;;5040629;28;20371;-71
2022/07/28 09:06:50;;;;;;;1.55;0.50;;;17.80;99.90;;;;;;5022286;28;20041;-71
2022/07/28 09:09:16;;;;;;;0.75;0.50;;;17.90;99.90;;;;;;5038299;28;20043;-71
2022/07/28 09:11:41;;;;;;;1.33;0.45;;;18.00;99.90;;;;;;5035300;28;20037;-71
2022/07/28 09:14:07;;;;;;;1.10;0.45;;;18.10;99.90;;;;;;5028689;28;20045;-71
2022/07/28 09:16:33;;;;;;;2.17;0.40;;;18.10;99.90;;;;;;5032269;28;20099;-71
2022/07/28 09:18:58;;;;;;;0.77;0.38;;;18.20;99.90;;;;;;5043923;28;20036;-71
2022/07/28 09:21:24;;;;;;;1.42;0.45;;;18.10;99.90;;;;;;5031409;28;20052;-71
2022/07/28 09:23:50;;;;;;;0.80;0.30;;;18.20;99.90;;;;;;5047491;28;20032;-71
2022/07/28 09:26:16;;;;;;;3.42;0.68;;;18.20;99.90;;;;;;5036869;28;20581;-71
2022/07/28 09:29:02;;;;;;;2.45;0.45;;;18.20;99.90;;;;;;5026474;28;20033;-71
2022/07/28 09:31:29;;;;;;;1.70;0.60;;;18.20;99.90;;;;;;5036736;28;23040;-71
2022/07/28 09:34:00;;;;;;;3.03;0.60;;;18.10;99.90;;;;;;5035675;28;20036;-71
2022/07/28 09:36:35;;;;;;;1.10;0.63;;;18.10;99.90;;;;;;5031122;28;20072;-71
2022/07/28 09:39:01;;;;;;;1.08;0.30;;;18.10;99.90;;;;;;5043161;28;20040;-71
2022/07/28 09:41:27;;;;;;;1.85;0.63;;;18.10;99.90;;;;;;5032967;28;20041;-71
2022/07/28 09:43:53;;;;;;;1.13;0.40;;;18.20;99.90;;;;;;5031871;28;20727;-71
2022/07/28 09:46:21;;;;;;;1.92;0.45;;;18.20;99.90;;;;;;5036735;28;20041;-71
2022/07/28 09:48:54;;;;;;;2.00;0.60;;;18.20;99.90;;;;;;5036738;28;20032;-71
2022/07/28 09:51:28;;;;;;;2.35;0.32;;;18.20;99.90;;;;;;5033467;28;22667;-71
2022/07/28 09:54:12;;;;;;;1.98;0.60;;;18.30;99.90;;;;;;5041558;28;20115;-71
2022/07/28 09:56:40;;;;;;;1.95;0.47;;;18.30;99.90;;;;;;5036284;28;20059;-71
2022/07/28 09:59:07;;;;;;;0.93;0.45;;;18.40;99.90;;;;;;5040176;28;20037;-71
2022/07/28 10:01:48;;;;;;;1.13;0.47;;;18.40;99.90;;;;;;5029795;28;20045;-71
2022/07/28 10:04:14;;;;;;;2.15;0.73;;;18.40;99.90;;;;;;5035552;28;20052;-72
2022/07/28 10:06:39;;;;;;;1.25;0.50;;;18.50;99.90;;;;;;5025822;28;20984;-72
2022/07/28 10:09:06;;;;;;;2.97;0.60;;;18.60;99.90;;;;;;5033693;28;20051;-72
2022/07/28 10:11:32;;;;;;;1.95;0.68;;;18.80;99.90;;;;;;5032572;28;20033;-72
2022/07/28 10:13:58;;;;;;;1.45;0.30;;;18.90;99.90;;;;;;5033208;28;22825;-71
2022/07/28 10:16:26;;;;;;;0.60;0.40;;;19.00;99.90;;;;;;5027706;28;20053;-71
2022/07/28 10:18:52;;;;;;;1.10;0.43;;;19.10;99.90;;;;;;5039785;28;20037;-71
2022/07/28 10:21:19;;;;;;;2.50;0.50;;;19.30;99.90;;;;;;5016111;28;20041;-71
2022/07/28 10:23:50;;;;;;;1.55;0.40;;;19.60;99.90;;;;;;5022307;28;20674;-71
2022/07/28 10:26:20;;;;;;;0.85;0.40;;;19.70;99.90;;;;;;5036972;28;20053;-72
2022/07/28 10:28:51;;;;;;;1.15;0.60;;;19.80;99.90;;;;;;5030178;28;20704;-71
2022/07/28 10:31:31;;;;;;;2.05;0.55;;;20.10;99.90;;;;;;5032020;28;20553;-71
2022/07/28 10:33:59;;;;;;;1.58;0.60;;;20.20;99.90;;;;;;5041780;28;20090;-71
2022/07/28 10:36:26;;;;;;;0.65;0.40;;;20.20;99.90;;;;;;5031902;28;20064;-72
2022/07/28 10:39:02;;;;;;;0.82;0.32;;;20.30;99.90;;;;;;5030883;28;20041;-72
2022/07/28 10:41:36;;;;;;;1.33;0.90;;;20.30;99.90;;;;;;5022567;28;20059;-71
2022/07/28 10:44:02;;;;;;;1.40;0.43;;;20.40;99.90;;;;;;5041025;28;20051;-72
2022/07/28 10:46:29;;;;;;;0.82;0.52;;;20.30;99.90;;;;;;5036999;28;20112;-71
2022/07/28 10:48:56;;;;;;;1.13;0.45;;;20.40;99.90;;;;;;5026136;28;20045;-71
2022/07/28 10:51:22;;;;;;;1.33;0.40;;;20.50;99.90;;;;;;5035735;28;20123;-71
2022/07/28 10:54:07;;;;;;;2.28;0.55;;;20.40;99.90;;;;;;5020598;28;20035;-71
2022/07/28 10:56:48;;;;;;;1.02;0.30;;;20.40;99.90;;;;;;5036941;28;20103;-71
2022/07/28 10:59:29;;;;;;;0.55;0.35;;;20.50;99.90;;;;;;5026474;28;23916;-72
2022/07/28 11:01:55;;;;;;;0.63;0.30;;;20.40;99.90;;;;;;5046610;28;20037;-71
2022/07/28 11:04:46;;;;;;;2.13;0.50;;;20.40;99.90;;;;;;5034168;28;20045;-71
2022/07/28 11:07:16;;;;;;;0.85;0.40;;;20.30;99.90;;;;;;5029599;28;20120;-72
2022/07/28 11:09:43;;;;;;;1.25;0.50;;;20.20;99.90;;;;;;5030307;28;22346;-71
2022/07/28 11:12:14;;;;;;;0.93;0.40;;;20.10;99.90;;;;;;5039725;28;20037;-72
2022/07/28 11:14:41;;;;;;;1.05;0.40;;;19.90;99.90;;;;;;5043828;28;20072;-72
2022/07/28 11:17:06;;;;;;;1.50;0.40;;;19.90;99.90;;;;;;5009405;28;20084;-72
2022/07/28 11:19:44;;;;;;;0.68;0.30;;;19.70;99.90;;;;;;5032541;28;20437;-72
2022/07/28 11:22:17;;;;;;;0.95;0.30;;;19.60;99.90;;;;;;5032854;28;20120;-72
2022/07/28 11:25:04;;;;;;;2.00;0.50;;;19.50;99.90;;;;;;5019955;28;20575;-72
2022/07/28 11:27:39;;;;;;;0.75;0.40;;;19.40;99.90;;;;;;5032457;28;20045;-72
2022/07/28 11:30:06;;;;;;;3.50;0.50;;;19.30;99.90;;;;;;5035361;28;20065;-72
2022/07/28 11:32:50;;;;;;;1.00;0.40;;;19.20;99.90;;;;;;5036060;28;20414;-72
2022/07/28 11:35:23;;;;;;;2.10;0.60;;;19.10;99.90;;;;;;5038838;28;20060;-71
2022/07/28 11:38:00;;;;;;;1.27;0.68;;;19.10;99.90;;;;;;5040864;28;20129;-71
2022/07/28 11:40:33;;;;;;;3.08;1.02;;;19.00;99.90;;;;;;5030948;28;20041;-71
2022/07/28 11:43:25;;;;;;;3.53;0.50;;;19.00;99.90;;;;;;5031885;28;23680;-71
2022/07/28 11:46:07;;;;;;;0.80;0.38;;;18.90;99.90;;;;;;5033194;28;20072;-72
2022/07/28 11:48:33;;;;;;;1.13;0.50;;;18.80;99.90;;;;;;5033322;28;20478;-71
2022/07/28 11:51:02;;;;;;;;;;;18.80;99.90;;;;;;5032920;28;20037;-71
2022/07/28 11:53:51;;;;;;;0.98;0.60;;;18.80;99.90;;;;;;5034771;28;19925;-71
2022/07/28 11:56:30;;;;;;;0.65;0.30;;;18.70;99.90;;;;;;5036368;28;20041;-71
2022/07/28 11:58:57;;;;;;;1.52;0.40;;;18.70;99.90;;;;;;5028058;28;24023;-72
2022/07/28 12:01:23;;;;;;;1.13;0.57;;;18.70;99.90;;;;;;5031831;28;20048;-71
2022/07/28 12:03:52;;;;;;;1.33;0.40;;;18.70;99.90;;;;;;5029250;28;20037;-71
2022/07/28 12:06:22;;;;;;;0.77;0.40;;;18.70;99.90;;;;;;5028633;28;20085;-72
2022/07/28 12:08:57;;;;;;;0.75;0.40;;;18.80;99.90;;;;;;5038027;28;20172;-71
2022/07/28 12:11:25;;;;;;;1.10;0.30;;;18.80;99.90;;;;;;5029151;28;20069;-72
2022/07/28 12:14:02;;;;;;;1.08;0.40;;;18.80;99.90;;;;;;5037679;28;20623;-71
2022/07/28 12:16:30;;;;;;;1.52;0.50;;;18.90;99.90;;;;;;5031234;28;20044;-71
2022/07/28 12:18:56;;;;;;;2.17;0.75;;;19.00;99.90;;;;;;5039305;28;20521;-71
2022/07/28 12:21:52;;;;;;;0.73;0.40;;;19.00;99.90;;;;;;5041239;28;20151;-71
2022/07/28 12:24:33;;;;;;;0.57;0.30;;;19.20;99.90;;;;;;5029305;28;20045;-73
2022/07/28 12:26:59;;;;;;;1.15;0.40;;;19.40;99.90;;;;;;5040108;28;20040;-72
2022/07/28 12:29:32;;;;;;;0.73;0.30;;;19.50;99.90;;;;;;5032977;28;20381;-72
2022/07/28 12:32:04;;;;;;;1.10;0.35;;;19.70;99.90;;;;;;5037436;28;20479;-72
2022/07/28 12:34:33;;;;;;;1.00;0.45;;;19.90;99.90;;;;;;5026528;28;20048;-72
2022/07/28 12:37:01;;;;;;;1.88;0.82;;;20.00;99.90;;;;;;5035532;28;20071;-72
2022/07/28 12:39:29;;;;;;;0.45;0.30;;;20.00;99.90;;;;;;5040369;28;20568;-72
2022/07/28 12:42:10;;;;;;;1.95;0.60;;;20.10;99.90;;;;;;5028509;28;20523;-73
2022/07/28 12:44:40;;;;;;;1.38;0.50;;;20.20;99.90;;;;;;5046346;28;20071;-73
2022/07/28 12:47:08;;;;;;;0.70;0.28;;;20.20;99.90;;;;;;5043958;28;20480;-73
2022/07/28 12:49:35;;;;;;;2.22;0.40;;;20.20;99.90;;;;;;5045050;28;20387;-73
2022/07/28 12:52:20;;;;;;;1.50;0.50;;;20.30;99.90;;;;;;5037931;28;20036;-72
2022/07/28 12:54:46;;;;;;;1.98;0.35;;;20.50;99.90;;;;;;5040734;28;20132;-72
2022/07/28 12:57:12;;;;;;;0.88;0.38;;;20.60;99.90;;;;;;5040410;28;20462;-73
2022/07/28 12:59:38;;;;;;;1.13;0.30;;;20.80;99.90;;;;;;5037226;28;21080;-72
2022/07/28 13:02:06;;;;;;;;;;;20.90;99.90;;;;;;5041778;28;20382;-72